Unionville, Illinois
Current Conditions -  °F | °C
As of 10:35 AM on Thursday 29 Jan 2015 (Local Time) from KM30 Reporting Station
Overcast Overcast  
Wind Chill: 51°   Ceiling: 3300
Heat Index: 51°   Visibility: 10mi
Dew Point: 40°   Wind: 17mph
Humidity: 66%   Direction: 340°NNW
Pressure: 30.07"   Gusts: 24mph
Location:  37.1362°N, 88.5694°W
Report Text: KM30 291635Z AUTO 34015G21KT 10SM OVC033 11/04 A3007 RMK AO2 T01050043
Loading
Personal Weather Stations






























Interactive Weather Map New forecast layout! Learn more

10-Day Weather Forecast

Advertisements
Track Severe Weather on mobile